Terminal Aerodrome Forecast
Issued by NWS

Home | Current Version | Previous Version | Text Only | Print | Product List | Glossary On
Versions: 1 2 3 4 5 6 7 8 9 10 11 12 13 14 15 16 17 18 19 20 21 22 23 24 25 26 27 28 29 30 31 32 33 34 35 36 37 38 39 40 41 42 43 44 45 46 47 48 49 50
000
FTUS45 KBOU 251138
TAFAPA
TAF
KAPA 251138Z 2512/2612 25005KT P6SM FEW080 SCT150
     FM251700 34007KT P6SM SCT070 SCT110 BKN150
     FM251900 04008KT P6SM VCSH SCT060 BKN090
      TEMPO 2520/2524 5SM -TSRA BKN040CB
     FM260300 15009KT P6SM SCT050 BKN090
     FM260500 19008KT P6SM FEW100=

USA.gov is the U.S. government's official web portal to all federal, state and local government web resources and services.